Terminal Aerodrome Forecast
Issued by NWS Medford, OR

Home | Current Version | Previous Version | Text Only | Print | Product List | Glossary On
Versions: 1 2 3 4 5 6 7 8 9 10 11 12
000
FTUS46 KMFR 192322
TAFMFR
TAF
KMFR 192322Z 2000/2024 VRB04KT P6SM SKC
     FM200900 00000KT P6SM SKC
     FM202000 VRB03KT P6SM SKC=

USA.gov is the U.S. government's official web portal to all federal, state and local government web resources and services.